Time;durP1;ratioP1;P1;durP2;ratioP2;P2;SDS_P1;SDS_P2;PMS_P1;PMS_P2;Temp;Humidity;BMP_temperature;BMP_pressure;BME280_temperature;BME280_humidity;BME280_pressure;Samples;Min_cycle;Max_cycle;Signal;HPM_P1;HPM_P2
2021/12/25 00:00:17;;;;;;;7.03;1.90;;;;;;;18.78;51.15;100418.78;5034612;28;20473;-70
2021/12/25 00:02:43;;;;;;;8.52;2.10;;;;;;;18.74;51.66;100412.16;5035249;28;20080;-70
2021/12/25 00:05:10;;;;;;;7.07;2.00;;;;;;;18.72;51.27;100416.69;5034720;28;20420;-70
2021/12/25 00:07:35;;;;;;;5.88;1.70;;;;;;;18.72;51.30;100411.44;5035445;28;20444;-70
2021/12/25 00:10:02;;;;;;;7.55;2.10;;;;;;;18.70;51.24;100415.19;5034966;28;20056;-70
2021/12/25 00:12:27;;;;;;;6.30;1.70;;;;;;;18.68;51.31;100415.34;5034294;28;20381;-70
2021/12/25 00:14:54;;;;;;;9.02;2.30;;;;;;;18.65;51.50;100416.44;5034993;28;20029;-70
2021/12/25 00:17:19;;;;;;;8.02;2.00;;;;;;;18.64;51.17;100416.56;5035205;28;20029;-71
2021/12/25 00:19:44;;;;;;;7.25;2.67;;;;;;;18.63;51.12;100413.09;5034282;28;20029;-70
2021/12/25 00:22:10;;;;;;;5.77;1.90;;;;;;;18.60;51.16;100418.66;5034811;28;20523;-71
2021/12/25 00:24:42;;;;;;;8.02;2.20;;;;;;;18.60;51.18;100415.19;5034896;28;20282;-70
2021/12/25 00:27:23;;;;;;;6.93;1.88;;;;;;;18.58;51.00;100403.91;5034405;28;20022;-70
2021/12/25 00:29:56;;;;;;;6.93;1.92;;;;;;;18.56;51.14;100400.59;5034695;28;20045;-70
2021/12/25 00:34:50;;;;;;;5.70;1.90;;;;;;;18.54;51.01;100397.28;5033841;28;20139;-70
2021/12/25 00:37:16;;;;;;;8.80;2.08;;;;;;;18.52;51.25;100393.91;5034705;28;20485;-70
2021/12/25 00:39:43;;;;;;;9.00;2.08;;;;;;;18.50;51.17;100402.00;5034416;28;20033;-70
2021/12/25 00:42:10;;;;;;;7.63;1.80;;;;;;;18.48;51.43;100401.28;5034086;28;20026;-69
2021/12/25 00:44:35;;;;;;;7.95;1.80;;;;;;;18.47;51.36;100397.81;5034929;28;20060;-70
2021/12/25 00:47:00;;;;;;;5.05;1.90;;;;;;;18.45;51.45;100405.06;5034277;28;20029;-69
2021/12/25 00:49:27;;;;;;;8.60;2.58;;;;;;;18.43;51.00;100409.59;5033939;28;20044;-70
2021/12/25 00:51:52;;;;;;;7.53;1.88;;;;;;;18.42;50.99;100412.38;5034417;28;20046;-70
2021/12/25 00:54:18;;;;;;;8.63;2.00;;;;;;;18.40;51.02;100420.44;5034060;28;20031;-69
2021/12/25 00:56:43;;;;;;;10.30;2.53;;;;;;;18.39;51.17;100410.88;5034651;28;20036;-69
2021/12/25 00:59:09;;;;;;;7.23;2.00;;;;;;;18.39;51.14;100415.28;5034905;28;20513;-70
2021/12/25 01:01:35;;;;;;;9.32;2.17;;;;;;;18.37;51.36;100409.31;5036566;28;20270;-70
2021/12/25 01:04:00;;;;;;;8.90;2.22;;;;;;;18.33;51.34;100403.50;5035520;28;20037;-70
2021/12/25 01:06:26;;;;;;;7.90;2.22;;;;;;;18.33;51.35;100410.59;5035979;28;20103;-70
2021/12/25 01:08:52;;;;;;;8.35;2.20;;;;;;;18.33;51.30;100410.59;5034546;28;20469;-70
2021/12/25 01:11:17;;;;;;;9.18;2.20;;;;;;;18.30;51.23;100409.03;5034788;28;20027;-70
2021/12/25 01:13:49;;;;;;;9.07;2.13;;;;;;;18.29;50.88;100412.63;5033665;28;20037;-71
2021/12/25 01:19:25;;;;;;;9.63;2.30;;;;;;;18.26;51.34;100408.50;5033865;28;20025;-70
2021/12/25 01:24:48;;;;;;;8.30;2.38;;;;;;;18.24;51.52;100401.66;5036611;28;20168;-70
2021/12/25 01:40:09;;;;;;;11.13;2.50;;;;;;;18.18;51.10;100404.84;5033369;28;20364;-70
2021/12/25 01:48:19;;;;;;;9.30;2.80;;;;;;;18.15;50.88;100403.34;5033504;28;20038;-70
2021/12/25 01:50:44;;;;;;;10.93;2.47;;;;;;;18.14;51.74;100409.56;5032520;28;20029;-70
2021/12/25 01:53:09;;;;;;;10.02;2.30;;;;;;;18.13;51.21;100402.63;5033417;28;20037;-69
2021/12/25 01:55:35;;;;;;;8.23;2.47;;;;;;;18.12;50.88;100393.88;5033396;28;20056;-70
2021/12/25 01:58:03;;;;;;;9.35;2.75;;;;;;;18.11;51.00;100394.84;5032286;28;20112;-70
2021/12/25 02:00:35;;;;;;;14.45;3.30;;;;;;;18.11;51.30;100397.47;5033228;28;20026;-70
2021/12/25 02:03:04;;;;;;;11.02;2.80;;;;;;;18.10;51.13;100397.59;5033284;28;20032;-69
2021/12/25 02:05:29;;;;;;;9.93;3.05;;;;;;;18.09;51.01;100398.59;5032595;28;20034;-70
2021/12/25 02:07:54;;;;;;;12.68;3.10;;;;;;;18.09;51.02;100398.59;5033027;28;20040;-70
2021/12/25 02:10:20;;;;;;;8.70;2.75;;;;;;;18.07;51.26;100401.38;5033060;28;20104;-71
2021/12/25 02:12:46;;;;;;;13.75;3.28;;;;;;;18.06;51.08;100394.41;5032101;28;20120;-70
2021/12/25 02:15:17;;;;;;;9.00;2.40;;;;;;;18.07;51.21;100400.50;5033101;28;20025;-70
2021/12/25 02:20:30;;;;;;;11.35;3.60;;;;;;;18.05;51.02;100399.81;5032444;28;20396;-70
2021/12/25 02:23:01;;;;;;;10.80;3.22;;;;;;;18.03;51.03;100386.78;5032463;28;20493;-70
2021/12/25 02:25:36;;;;;;;9.02;2.90;;;;;;;18.03;51.19;100393.84;5032884;28;20476;-70
2021/12/25 02:28:03;;;;;;;9.18;3.53;;;;;;;18.02;51.05;100387.72;5031848;28;20450;-70
2021/12/25 02:30:29;;;;;;;9.30;3.10;;;;;;;18.01;50.88;100385.22;5033076;28;20104;-69
2021/12/25 02:32:58;;;;;;;12.80;3.75;;;;;;;18.00;51.02;100392.31;5031923;28;20113;-70
2021/12/25 02:35:30;;;;;;;9.50;3.13;;;;;;;17.99;50.73;100393.31;5032907;28;20052;-70
2021/12/25 02:37:56;;;;;;;12.75;3.08;;;;;;;17.98;51.17;100393.44;5032601;28;20034;-70
2021/12/25 02:40:22;;;;;;;14.15;3.53;;;;;;;17.99;50.71;100392.44;5032127;28;20033;-69
2021/12/25 02:42:47;;;;;;;10.13;3.47;;;;;;;17.97;50.77;100391.75;5032662;28;20030;-70
2021/12/25 02:45:18;;;;;;;13.15;4.15;;;;;;;17.96;50.58;100401.47;5033259;28;20021;-70
2021/12/25 02:47:46;;;;;;;9.35;3.47;;;;;;;17.96;50.90;100396.19;5031851;28;20036;-70
2021/12/25 02:50:12;;;;;;;12.15;3.47;;;;;;;17.98;50.36;100399.53;5032582;28;20079;-69
2021/12/25 02:52:38;;;;;;;12.32;3.75;;;;;;;18.00;50.57;100396.75;5032497;28;20124;-69
2021/12/25 02:55:06;;;;;;;10.27;3.65;;;;;;;18.03;50.50;100399.13;5033160;28;20116;-70
2021/12/25 02:57:32;;;;;;;11.35;4.15;;;;;;;18.06;50.43;100407.59;5036754;28;20045;-70
2021/12/25 02:59:57;;;;;;;13.43;4.28;;;;;;;18.09;50.25;100398.59;5036536;28;20482;-70
2021/12/25 03:02:23;;;;;;;17.00;3.72;;;;;;;18.11;49.95;100397.47;5036151;28;20025;-71
2021/12/25 03:04:49;;;;;;;14.23;3.85;;;;;;;18.13;49.98;100403.47;5036265;28;20033;-70
2021/12/25 03:07:16;;;;;;;9.10;3.42;;;;;;;18.15;49.53;100399.84;5036520;28;20473;-70
2021/12/25 03:09:42;;;;;;;8.45;3.28;;;;;;;18.16;49.91;100404.16;5035425;28;20354;-70
2021/12/25 03:12:12;;;;;;;15.85;3.60;;;;;;;18.16;49.68;100404.16;5036386;28;20025;-70
2021/12/25 03:15:05;;;;;;;9.93;3.20;;;;;;;18.18;49.49;100410.13;5036566;28;20059;-69
2021/12/25 03:17:29;;;;;;;9.32;2.90;;;;;;;18.19;49.91;100411.81;5036254;28;20021;-69
2021/12/25 03:19:55;;;;;;;11.02;2.80;;;;;;;18.20;50.04;100416.09;5035903;28;20533;-70
2021/12/25 03:22:21;;;;;;;11.07;3.00;;;;;;;18.20;49.48;100422.22;5035345;28;20045;-70
2021/12/25 03:24:46;;;;;;;10.00;2.90;;;;;;;18.21;49.44;100421.22;5036113;28;20124;-71
2021/12/25 03:27:12;;;;;;;9.90;2.97;;;;;;;18.21;49.67;100431.78;5036375;28;20025;-71
2021/12/25 03:29:40;;;;;;;13.48;3.70;;;;;;;18.21;49.47;100433.59;5035560;28;20025;-70
2021/12/25 03:32:06;;;;;;;14.63;3.55;;;;;;;18.21;49.19;100425.69;5036048;28;20056;-70
2021/12/25 03:34:31;;;;;;;10.27;3.17;;;;;;;18.21;49.61;100431.78;5036107;28;20049;-70
2021/12/25 03:36:57;;;;;;;9.03;3.00;;;;;;;18.19;49.47;100436.38;5035195;28;20033;-69
2021/12/25 03:39:22;;;;;;;9.90;2.85;;;;;;;18.18;49.34;100441.78;5036540;28;20293;-70
2021/12/25 03:41:50;;;;;;;10.15;3.20;;;;;;;18.19;49.27;100440.81;5035651;28;20088;-70
2021/12/25 03:44:15;;;;;;;10.38;3.35;;;;;;;18.19;48.86;100438.19;5035061;28;20084;-70
2021/12/25 03:46:41;;;;;;;12.57;3.10;;;;;;;18.18;49.04;100444.41;5035585;28;20029;-69
2021/12/25 03:49:14;;;;;;;10.90;3.05;;;;;;;18.19;49.06;100439.00;5035685;28;20075;-71
2021/12/25 04:00:00;;;;;;;15.00;3.55;;;;;;;18.24;49.05;100443.88;5035270;28;20389;-70
2021/12/25 04:02:33;;;;;;;13.20;2.97;;;;;;;18.24;48.95;100444.69;5035883;28;20033;-69
2021/12/25 04:05:00;;;;;;;13.40;3.22;;;;;;;18.25;49.11;100442.91;5034603;28;20075;-70
2021/12/25 04:07:57;;;;;;;13.07;3.20;;;;;;;18.26;48.99;100447.19;5034115;28;20034;-69
2021/12/25 04:10:17;;;;;;;11.13;3.55;;;;;;;18.13;48.67;100432.47;5035874;28;20361;-70
2021/12/25 04:12:43;;;;;;;10.68;3.42;;;;;;;18.24;48.73;100459.69;5036779;28;20025;-71
2021/12/25 04:15:08;;;;;;;10.68;2.97;;;;;;;18.23;48.33;100447.47;5038048;28;20022;-69
2021/12/25 04:17:34;;;;;;;11.48;4.47;;;;;;;18.24;48.53;100460.53;5038015;28;20022;-69
2021/12/25 04:20:02;;;;;;;12.98;3.33;;;;;;;18.23;48.93;100465.94;5037027;28;20029;-70
2021/12/25 04:22:34;;;;;;;16.27;4.43;;;;;;;18.21;48.62;100462.59;5034840;28;20068;-70
2021/12/25 04:24:59;;;;;;;13.70;3.35;;;;;;;18.21;48.03;100466.06;5034766;28;20049;-70
2021/12/25 04:27:25;;;;;;;14.48;4.90;;;;;;;18.21;48.45;100470.50;5034529;28;20036;-70
2021/12/25 04:30:44;;;;;;;12.48;3.17;;;;;;;18.20;48.27;100471.47;5034701;28;20362;-71
2021/12/25 05:05:18;;;;;;;15.47;3.73;;;;;;;18.19;47.64;100519.94;5034493;28;20429;-70
2021/12/25 05:07:43;;;;;;;14.75;3.50;;;;;;;18.17;47.75;100512.16;5033185;28;20336;-70
2021/12/25 05:10:09;;;;;;;11.32;3.35;;;;;;;18.17;47.65;100513.97;5034127;28;20373;-70
2021/12/25 05:12:34;;;;;;;13.90;3.22;;;;;;;18.16;47.76;100525.47;5034076;28;20045;-70
2021/12/25 05:15:02;;;;;;;15.52;3.30;;;;;;;18.15;47.17;100521.16;5033407;28;20476;-70
2021/12/25 05:17:52;;;;;;;14.63;3.25;;;;;;;18.14;47.32;100520.34;5033682;28;20029;-70
2021/12/25 05:20:18;;;;;;;13.02;3.30;;;;;;;18.13;47.08;100523.94;5034031;28;20044;-70
2021/12/25 05:22:44;;;;;;;13.88;3.35;;;;;;;18.11;47.10;100523.22;5032670;28;20041;-70
2021/12/25 05:25:12;;;;;;;15.43;3.40;;;;;;;18.11;47.08;100520.59;5034018;28;20480;-70
2021/12/25 05:27:37;;;;;;;13.48;3.60;;;;;;;18.10;47.13;100527.69;5034109;28;20152;-70
2021/12/25 05:30:04;;;;;;;11.85;2.90;;;;;;;18.09;46.75;100538.34;5032914;28;20108;-70
2021/12/25 05:32:29;;;;;;;12.43;3.28;;;;;;;18.07;46.49;100533.22;5033813;28;20026;-70
2021/12/25 05:34:54;;;;;;;11.80;3.10;;;;;;;18.07;46.82;100538.50;5033314;28;20025;-70
2021/12/25 05:37:20;;;;;;;10.68;3.53;;;;;;;18.07;46.76;100540.28;5032761;28;20287;-70
2021/12/25 05:39:50;;;;;;;12.43;3.45;;;;;;;18.08;46.96;100547.22;5033238;28;20021;-71
2021/12/25 05:42:17;;;;;;;16.65;3.78;;;;;;;18.08;46.59;100536.69;5033980;28;20032;-70
2021/12/25 05:44:43;;;;;;;14.70;3.85;;;;;;;18.08;46.73;100548.06;5032641;28;20025;-71
2021/12/25 05:47:08;;;;;;;14.85;3.47;;;;;;;18.09;46.42;100538.34;5033673;28;20025;-71
2021/12/25 05:49:33;;;;;;;15.38;3.65;;;;;;;18.09;46.71;100547.09;5033466;28;20025;-70
2021/12/25 05:51:59;;;;;;;16.73;4.43;;;;;;;18.08;46.39;100550.69;5032258;28;20439;-71
2021/12/25 05:54:24;;;;;;;13.70;3.63;;;;;;;18.09;46.23;100549.75;5033502;28;20288;-71
2021/12/25 05:56:49;;;;;;;14.65;3.28;;;;;;;18.08;46.18;100548.06;5032318;28;20068;-71
2021/12/25 05:59:15;;;;;;;12.88;3.05;;;;;;;18.08;46.12;100550.69;5033166;28;20036;-70
2021/12/25 06:01:40;;;;;;;12.00;2.88;;;;;;;18.11;46.42;100557.53;5032989;28;20021;-70
2021/12/25 06:04:05;;;;;;;11.63;3.13;;;;;;;18.11;46.86;100560.97;5032424;28;20368;-70
2021/12/25 06:06:30;;;;;;;7.50;2.42;;;;;;;18.15;47.20;100558.09;5033005;28;20044;-71
2021/12/25 06:08:59;;;;;;;16.23;3.75;;;;;;;18.17;47.89;100564.91;5032973;28;20059;-70
2021/12/25 06:11:25;;;;;;;14.32;3.22;;;;;;;18.20;48.04;100566.44;5032416;28;20101;-70
2021/12/25 06:13:59;;;;;;;13.55;3.65;;;;;;;18.22;47.99;100570.63;5032576;28;20124;-70
2021/12/25 06:16:25;;;;;;;12.38;2.85;;;;;;;18.24;47.96;100566.03;5033231;28;20033;-70
2021/12/25 06:18:50;;;;;;;12.52;2.80;;;;;;;18.27;48.43;100571.03;5031880;28;20124;-70
2021/12/25 06:21:15;;;;;;;14.43;3.78;;;;;;;18.28;48.62;100564.81;5032600;28;20104;-70
2021/12/25 06:23:41;;;;;;;12.95;2.55;;;;;;;18.30;48.50;100573.41;5033072;28;20030;-70
2021/12/25 06:26:06;;;;;;;15.33;2.80;;;;;;;18.32;48.24;100578.56;5032706;28;20025;-71
2021/12/25 06:28:31;;;;;;;11.02;2.83;;;;;;;18.34;48.42;100586.34;5033358;28;20314;-70
2021/12/25 06:30:58;;;;;;;10.27;2.67;;;;;;;18.36;48.43;100585.25;5032849;28;20081;-70
2021/12/25 06:33:23;;;;;;;13.20;2.70;;;;;;;18.38;48.30;100587.78;5032445;28;20061;-70
2021/12/25 06:35:50;;;;;;;13.40;2.60;;;;;;;18.38;48.30;100579.84;5032791;28;20469;-70
2021/12/25 06:38:16;;;;;;;13.48;3.30;;;;;;;18.41;48.12;100584.88;5033426;28;20290;-70
2021/12/25 06:40:41;;;;;;;12.63;3.30;;;;;;;18.41;48.34;100587.50;5031897;28;20355;-70
2021/12/25 06:43:06;;;;;;;11.45;2.83;;;;;;;18.42;48.19;100586.53;5032749;28;20033;-70
2021/12/25 06:45:32;;;;;;;13.63;2.63;;;;;;;18.43;48.18;100588.19;5032885;28;20025;-70
2021/12/25 06:48:00;;;;;;;16.10;2.78;;;;;;;18.45;48.39;100594.16;5031881;28;20665;-70
2021/12/25 06:50:26;;;;;;;15.40;2.42;;;;;;;18.45;48.20;100589.75;5033726;28;20034;-71
2021/12/25 06:52:51;;;;;;;13.95;2.58;;;;;;;18.46;48.12;100594.03;5033692;28;20037;-70
2021/12/25 06:55:17;;;;;;;14.65;2.75;;;;;;;18.47;48.18;100593.09;5035012;28;20052;-71
2021/12/25 06:57:52;;;;;;;13.80;2.70;;;;;;;18.48;48.22;100593.91;5036302;28;20529;-70
2021/12/25 07:00:21;;;;;;;13.07;2.85;;;;;;;18.48;48.11;100593.91;5036811;28;20025;-71
2021/12/25 07:02:46;;;;;;;10.95;3.15;;;;;;;18.49;48.08;100603.50;5038321;28;20025;-71
2021/12/25 07:05:12;;;;;;;14.57;2.50;;;;;;;18.49;48.28;100604.34;5037680;28;20504;-71
2021/12/25 07:07:37;;;;;;;15.27;2.67;;;;;;;18.51;48.07;100606.84;5035409;28;20026;-71
2021/12/25 07:10:04;;;;;;;15.32;2.67;;;;;;;18.53;48.08;100612.81;5038046;28;20096;-71
2021/12/25 07:12:35;;;;;;;15.70;2.55;;;;;;;18.53;48.36;100610.16;5041131;28;20046;-71
2021/12/25 07:15:04;;;;;;;11.45;2.53;;;;;;;18.54;48.17;100613.66;5032360;28;20048;-70
2021/12/25 07:17:33;;;;;;;14.13;3.92;;;;;;;18.55;48.18;100615.31;5032853;28;20026;-68
2021/12/25 07:19:59;;;;;;;13.30;3.38;;;;;;;18.55;46.24;100615.31;5034619;28;20112;-70
2021/12/25 07:22:27;;;;;;;10.98;2.42;;;;;;;18.55;47.27;100613.53;5031958;28;20045;-69
2021/12/25 07:24:52;;;;;;;11.35;2.13;;;;;;;18.56;47.62;100622.28;5033064;28;20032;-68
2021/12/25 07:27:18;;;;;;;12.43;2.50;;;;;;;18.58;47.75;100633.53;5032736;28;20449;-65
2021/12/25 07:29:43;;;;;;;11.65;2.28;;;;;;;18.59;47.95;100628.13;5032001;28;20285;-69
2021/12/25 07:32:08;;;;;;;13.30;2.60;;;;;;;18.59;47.86;100625.47;5032076;28;20029;-70
2021/12/25 07:34:33;;;;;;;14.23;2.80;;;;;;;18.60;47.71;100637.72;5032301;28;20271;-69
2021/12/25 07:37:03;;;;;;;9.68;2.30;;;;;;;18.61;47.81;100634.13;5031438;28;20481;-67
2021/12/25 07:39:28;;;;;;;11.90;2.20;;;;;;;18.62;47.75;100643.69;5032192;28;20037;-69
2021/12/25 07:41:54;;;;;;;10.75;2.10;;;;;;;18.62;47.60;100635.78;5034534;28;20377;-70
2021/12/25 07:44:19;;;;;;;10.70;1.90;;;;;;;18.64;47.82;100639.13;5035088;28;20091;-65
2021/12/25 07:46:50;;;;;;;8.63;1.63;;;;;;;18.62;46.49;100641.06;5035352;28;20385;-68
2021/12/25 07:49:19;;;;;;;11.15;2.65;;;;;;;18.64;47.23;100646.19;5035438;28;20397;-66
2021/12/25 07:51:48;;;;;;;9.35;1.83;;;;;;;18.63;47.71;100641.91;5035123;28;20103;-66
2021/12/25 07:54:13;;;;;;;11.10;2.05;;;;;;;18.74;47.84;100649.72;5037322;28;20030;-68
2021/12/25 07:56:41;;;;;;;9.73;2.17;;;;;;;18.83;47.50;100643.66;5035413;28;20032;-66
2021/12/25 07:59:07;;;;;;;8.30;1.98;;;;;;;18.93;47.30;100646.34;5035635;28;20033;-68
2021/12/25 08:01:34;;;;;;;11.35;2.22;;;;;;;18.99;46.32;100652.88;5036424;28;20076;-71
2021/12/25 08:04:01;;;;;;;6.55;2.00;;;;;;;19.03;45.38;100654.28;5035764;28;20040;-66
2021/12/25 08:06:26;;;;;;;12.32;2.45;;;;;;;19.10;45.82;100655.41;5036020;28;20116;-68
2021/12/25 08:08:55;;;;;;;7.97;2.00;;;;;;;19.17;45.75;100655.72;5036948;28;20056;-68
2021/12/25 08:11:23;;;;;;;10.10;1.95;;;;;;;19.26;45.75;100661.97;5036188;28;20041;-68
2021/12/25 08:13:48;;;;;;;12.05;2.63;;;;;;;19.32;45.03;100662.25;5035972;28;20121;-67
2021/12/25 08:16:13;;;;;;;14.07;2.92;;;;;;;19.40;44.65;100669.50;5036455;28;20116;-68
2021/12/25 08:18:38;;;;;;;11.73;2.30;;;;;;;19.46;43.93;100673.44;5035097;28;20030;-67
2021/12/25 08:21:04;;;;;;;11.37;2.30;;;;;;;19.51;43.97;100672.03;5035201;28;20037;-67
2021/12/25 08:23:31;;;;;;;13.02;2.22;;;;;;;19.52;43.86;100676.34;5036092;28;20797;-72
2021/12/25 08:25:56;;;;;;;11.48;2.10;;;;;;;19.56;44.40;100674.25;5034335;28;20026;-72
2021/12/25 08:28:24;;;;;;;13.33;2.20;;;;;;;19.57;44.55;100683.88;5035073;28;20500;-65
2021/12/25 08:30:49;;;;;;;12.50;2.13;;;;;;;19.61;44.28;100684.41;5035581;28;20277;-68
2021/12/25 08:33:20;;;;;;;9.73;2.10;;;;;;;19.66;44.55;100679.53;5035529;28;20037;-73
2021/12/25 08:35:46;;;;;;;11.90;2.40;;;;;;;19.69;44.60;100687.19;5035922;28;20544;-66
2021/12/25 08:38:11;;;;;;;10.27;2.13;;;;;;;19.72;44.49;100690.41;5036628;28;20025;-69
2021/12/25 08:40:38;;;;;;;15.65;2.60;;;;;;;19.75;44.22;100695.41;5036556;28;20067;-68
2021/12/25 08:43:05;;;;;;;12.60;2.15;;;;;;;19.78;44.43;100699.63;5035526;28;20025;-68
2021/12/25 08:45:43;;;;;;;15.05;2.30;;;;;;;19.79;44.34;100688.09;5035347;28;20079;-66
2021/12/25 08:48:20;;;;;;;14.82;2.88;;;;;;;19.80;44.17;100702.13;5035259;28;20025;-67
2021/12/25 08:50:57;;;;;;;10.45;2.08;;;;;;;19.78;44.28;100699.63;5034752;28;20041;-71
2021/12/25 08:53:25;;;;;;;13.07;2.92;;;;;;;19.78;43.66;100706.72;5033567;28;20037;-67
2021/12/25 08:55:57;;;;;;;11.23;2.63;;;;;;;19.74;43.47;100704.34;5036085;28;20418;-65
2021/12/25 08:58:24;;;;;;;10.65;1.95;;;;;;;19.75;43.23;100718.38;5035840;28;20025;-65
2021/12/25 09:00:55;;;;;;;9.15;1.70;;;;;;;19.74;43.02;100714.91;5035517;28;20060;-68
2021/12/25 09:03:20;;;;;;;12.75;2.42;;;;;;;19.72;43.21;100718.66;5034860;28;20041;-68
2021/12/25 09:05:45;;;;;;;13.85;2.60;;;;;;;19.67;43.11;100716.41;5034153;28;20025;-68
2021/12/25 09:08:13;;;;;;;15.27;4.10;;;;;;;19.65;43.71;100715.72;5034494;28;20088;-67
2021/12/25 09:10:39;;;;;;;11.38;2.10;;;;;;;19.64;43.55;100707.94;5036165;28;20182;-70
2021/12/25 09:13:04;;;;;;;10.30;1.95;;;;;;;19.67;43.37;100716.41;5035684;28;20489;-72
2021/12/25 09:15:30;;;;;;;16.05;3.30;;;;;;;19.69;43.63;100719.78;5034428;28;20036;-71
2021/12/25 09:17:56;;;;;;;15.77;2.90;;;;;;;19.70;43.51;100724.06;5034158;28;20018;-72
2021/12/25 09:20:22;;;;;;;7.80;2.00;;;;;;;19.66;42.32;100721.84;5034431;28;20401;-73
2021/12/25 09:22:48;;;;;;;14.27;2.47;;;;;;;19.62;42.96;100723.94;5033399;28;20044;-67
2021/12/25 09:25:13;;;;;;;;;;;;;;;19.60;43.18;100728.53;5035452;28;19921;-68
2021/12/25 09:27:39;;;;;;;;;;;;;;;19.61;43.17;100726.72;5037468;28;20253;-68
2021/12/25 09:30:05;;;;;;;;;;;;;;;19.62;43.46;100723.09;5033441;28;19939;-68
2021/12/25 09:32:30;;;;;;;;;;;;;;;19.62;43.72;100723.09;5034661;28;19921;-67
2021/12/25 09:34:55;;;;;;;;;;;;;;;19.63;43.58;100722.13;5033290;28;19917;-67
2021/12/25 09:37:21;;;;;;;10.65;2.40;;;;;;;19.58;42.46;100719.88;5034035;28;19943;-66
2021/12/25 09:39:47;;;;;;;15.85;3.03;;;;;;;19.52;43.36;100731.84;5033188;28;20044;-67
2021/12/25 09:42:12;;;;;;;8.40;1.92;;;;;;;19.42;41.15;100733.63;5032963;28;20140;-68
2021/12/25 09:44:38;;;;;;;13.23;2.33;;;;;;;19.35;42.83;100735.16;5033506;28;20021;-68
2021/12/25 09:47:04;;;;;;;;;;;;;;;19.29;43.26;100739.16;5033615;28;20039;-68
2021/12/25 09:49:29;;;;;;;;;;;;;;;19.26;43.19;100741.25;5032998;28;19990;-69
2021/12/25 09:51:54;;;;;;;;;;;;;;;19.22;43.49;100740.69;5033577;28;19952;-69
2021/12/25 09:54:20;;;;;;;;;;;;;;;19.19;43.40;100749.69;5033821;28;20431;-69
2021/12/25 09:56:46;;;;;;;;;;;;;;;19.17;44.24;100756.09;5032777;28;20376;-69
2021/12/25 09:59:12;;;;;;;;;;;;;;;19.14;44.65;100757.19;5033707;28;20094;-69
2021/12/25 10:01:37;;;;;;;;;;;;;;;19.12;44.72;100759.16;5033651;28;19913;-69
2021/12/25 10:04:02;;;;;;;;;;;;;;;19.10;44.27;100766.34;5032521;28;19924;-69
2021/12/25 10:06:29;;;;;;;;;;;;;;;19.09;44.49;100767.34;5033926;28;19917;-69
2021/12/25 10:08:54;;;;;;;;;;;;;;;19.08;44.66;100773.56;5033432;28;19920;-69
2021/12/25 10:11:19;;;;;;;;;;;;;;;19.06;44.48;100775.53;5032668;28;19913;-69
2021/12/25 10:13:45;;;;;;;;;;;;;;;19.06;44.21;100779.94;5033099;28;19967;-69
2021/12/25 10:16:29;;;;;;;14.30;2.17;;;;;;;19.03;44.08;100778.44;5033093;28;20771;-69
2021/12/25 10:19:11;;;;;;;10.73;2.10;;;;;;;19.02;43.85;100769.66;5032192;28;20037;-69
2021/12/25 10:21:37;;;;;;;18.27;2.97;;;;;;;19.02;44.37;100777.56;5032866;28;20133;-69
2021/12/25 10:24:02;;;;;;;16.25;3.05;;;;;;;19.00;44.05;100776.88;5032088;28;20067;-69
2021/12/25 10:26:27;;;;;;;14.47;2.63;;;;;;;19.00;43.87;100783.97;5032736;28;20124;-69
2021/12/25 10:28:52;;;;;;;;;;;;;;;18.98;43.87;100776.19;5032946;28;20298;-69
2021/12/25 10:31:28;;;;;;;;;;;;;;;18.98;43.70;100778.00;5032477;28;19920;-69
2021/12/25 10:33:53;;;;;;;;;;;;;;;18.97;43.97;100771.84;5033001;28;19936;-70
2021/12/25 10:36:29;;;;;;;;;;;;;;;18.96;44.20;100778.13;5033129;28;19917;-69
2021/12/25 10:39:06;;;;;;;;;;;;;;;18.95;44.37;100768.50;5031966;28;19913;-69
2021/12/25 10:41:34;;;;;;;;;;;;;;;18.95;44.05;100772.97;5033006;28;19924;-69
2021/12/25 10:44:17;;;;;;;;;;;;;;;18.94;44.37;100774.75;5032521;28;19991;-68
2021/12/25 10:46:46;;;;;;;;;;;;;;;18.93;44.42;100774.88;5031774;28;20321;-69
2021/12/25 10:49:12;;;;;;;;;;;;;;;18.92;44.28;100770.59;5033033;28;19917;-68
2021/12/25 10:51:37;;;;;;;;;;;;;;;18.91;44.03;100775.00;5032870;28;20292;-68
2021/12/25 10:54:12;;;;;;;;;;;;;;;18.91;43.74;100771.56;5031613;28;19913;-68
2021/12/25 10:56:44;;;;;;;;;;;;;;;18.90;43.67;100769.88;5032868;28;20369;-68
2021/12/25 10:59:11;;;;;;;;;;;;;;;18.90;44.43;100772.50;5032434;28;19913;-68
2021/12/25 11:01:44;;;;;;;;;;;;;;;18.90;44.53;100769.88;5032813;28;19913;-68
2021/12/25 11:04:30;;;;;;;;;;;;;;;18.88;44.47;100759.44;5032797;28;19924;-69
2021/12/25 11:06:56;;;;;;;;;;;;;;;18.88;44.18;100771.81;5031899;28;19917;-68
2021/12/25 11:09:22;;;;;;;;;;;;;;;18.87;43.94;100770.13;5032604;28;20381;-68
2021/12/25 11:12:07;;;;;;;;;;;;;;;18.87;44.54;100768.34;5032551;28;19993;-68
2021/12/25 11:14:32;;;;;;;;;;;;;;;18.88;44.86;100771.81;5031996;28;20293;-68
2021/12/25 11:17:21;;;;;;;;;;;;;;;18.87;44.75;100776.25;5035378;28;19912;-69
2021/12/25 11:19:48;;;;;;;;;;;;;;;18.87;45.02;100778.03;5036399;28;19939;-68
2021/12/25 11:22:13;;;;;;;;;;;;;;;18.85;44.94;100773.75;5035750;28;19917;-68
2021/12/25 11:24:43;;;;;;;;;;;;;;;18.85;44.59;100773.75;5036641;28;20448;-69
2021/12/25 11:27:08;;;;;;;;;;;;;;;18.84;44.63;100777.34;5036658;28;19944;-69
2021/12/25 11:29:36;;;;;;;16.00;2.80;;;;;;;18.84;44.27;100779.16;5035489;28;20398;-69
2021/12/25 11:32:04;;;;;;;14.70;2.90;;;;;;;18.83;44.20;100765.09;5035822;28;20291;-69
2021/12/25 11:34:30;;;;;;;16.50;3.35;;;;;;;18.83;44.23;100756.31;5035404;28;20025;-68
2021/12/25 11:36:57;;;;;;;19.38;3.15;;;;;;;18.82;44.27;100757.31;5035666;28;20033;-69
2021/12/25 11:39:25;;;;;;;15.00;2.78;;;;;;;18.82;44.64;100752.03;5035978;28;20036;-69
2021/12/25 11:41:55;;;;;;;15.82;3.00;;;;;;;18.80;44.18;100748.66;5034705;28;20029;-68
2021/12/25 11:44:44;;;;;;;13.57;2.50;;;;;;;18.82;43.93;100746.75;5035975;28;20088;-68
2021/12/25 11:47:39;;;;;;;16.08;3.30;;;;;;;18.82;43.78;100754.69;5035811;28;20064;-68
2021/12/25 11:50:13;;;;;;;19.17;2.75;;;;;;;18.81;43.73;100761.75;5034927;28;20416;-69
2021/12/25 11:52:45;;;;;;;;;;;;;;;18.80;44.17;100764.50;5036213;28;20532;-69
2021/12/25 11:58:18;;;;;;;21.95;3.95;;;;;;;18.81;44.49;100771.47;5035309;28;20148;-69
2021/12/25 12:00:50;;;;;;;20.98;2.80;;;;;;;18.80;44.50;100756.59;5035216;28;20038;-69
2021/12/25 12:03:44;;;;;;;19.88;2.78;;;;;;;18.80;44.49;100762.72;5034907;28;20026;-69
2021/12/25 12:06:09;;;;;;;21.77;3.47;;;;;;;18.79;44.30;100761.03;5035492;28;20061;-68
2021/12/25 12:08:53;;;;;;;20.38;2.92;;;;;;;18.79;44.06;100754.94;5035419;28;20489;-68
2021/12/25 12:11:26;;;;;;;15.98;3.40;;;;;;;18.78;43.85;100762.00;5034532;28;20067;-69
2021/12/25 12:14:26;;;;;;;15.35;3.05;;;;;;;18.78;43.99;100759.34;5035047;28;20029;-69
2021/12/25 12:16:53;;;;;;;16.15;3.08;;;;;;;18.78;44.12;100753.25;5032900;28;20060;-69
2021/12/25 12:19:31;;;;;;;17.80;3.05;;;;;;;18.78;44.13;100759.34;5035083;28;20026;-69
2021/12/25 12:22:08;;;;;;;15.52;2.97;;;;;;;18.77;43.83;100752.44;5034529;28;20050;-69
2021/12/25 12:27:04;;;;;;;18.25;3.20;;;;;;;18.79;43.82;100741.72;5033740;28;20446;-69
2021/12/25 12:29:38;;;;;;;17.42;3.17;;;;;;;18.78;43.84;100732.97;5034764;28;20459;-68
2021/12/25 12:32:04;;;;;;;13.20;2.50;;;;;;;18.79;44.18;100728.53;5033945;28;20049;-68
2021/12/25 12:34:29;;;;;;;14.82;2.45;;;;;;;18.78;43.92;100724.22;5035104;28;20029;-69
2021/12/25 12:37:13;;;;;;;19.00;3.40;;;;;;;18.78;44.05;100730.31;5034759;28;20037;-69
2021/12/25 12:39:40;;;;;;;20.30;3.25;;;;;;;18.78;43.77;100718.94;5034124;28;20120;-69
2021/12/25 12:42:09;;;;;;;22.27;4.50;;;;;;;18.77;43.79;100723.38;5034825;28;20452;-68
2021/12/25 12:44:36;;;;;;;15.52;2.78;;;;;;;18.78;43.23;100721.56;5034597;28;20523;-68
2021/12/25 12:47:11;;;;;;;15.93;3.30;;;;;;;18.77;43.68;100726.03;5033870;28;20129;-68
2021/12/25 12:49:39;;;;;;;17.27;2.53;;;;;;;18.78;43.63;100722.41;5034832;28;20523;-68